sensor_id;sensor_type;location;lat;lon;timestamp;temperature;humidity
56298;DHT22;42208;6.376;-10.782;2023-11-21T00:00:22;27.30;99.90
56298;DHT22;42208;6.376;-10.782;2023-11-21T00:02:50;27.30;99.90
56298;DHT22;42208;6.376;-10.782;2023-11-21T00:05:19;27.30;99.90
56298;DHT22;42208;6.376;-10.782;2023-11-21T00:07:48;27.30;99.90
56298;DHT22;42208;6.376;-10.782;2023-11-21T00:10:16;27.30;99.90
56298;DHT22;42208;6.376;-10.782;2023-11-21T00:12:45;27.30;99.90
56298;DHT22;42208;6.376;-10.782;2023-11-21T00:15:13;27.30;99.90
56298;DHT22;42208;6.376;-10.782;2023-11-21T00:18:36;27.30;99.90
56298;DHT22;42208;6.376;-10.782;2023-11-21T00:21:08;27.30;99.90
56298;DHT22;42208;6.376;-10.782;2023-11-21T00:23:39;27.30;99.90
56298;DHT22;42208;6.376;-10.782;2023-11-21T00:26:07;27.20;99.90
56298;DHT22;42208;6.376;-10.782;2023-11-21T00:28:36;27.30;99.90
56298;DHT22;42208;6.376;-10.782;2023-11-21T00:31:05;27.30;99.90
56298;DHT22;42208;6.376;-10.782;2023-11-21T00:33:33;27.30;99.90
56298;DHT22;42208;6.376;-10.782;2023-11-21T00:36:02;27.30;99.90
56298;DHT22;42208;6.376;-10.782;2023-11-21T00:38:31;27.30;99.90
56298;DHT22;42208;6.376;-10.782;2023-11-21T00:41:00;27.20;99.90
56298;DHT22;42208;6.376;-10.782;2023-11-21T00:43:29;27.20;99.90
56298;DHT22;42208;6.376;-10.782;2023-11-21T00:45:58;27.20;99.90
56298;DHT22;42208;6.376;-10.782;2023-11-21T00:48:26;27.20;99.90
56298;DHT22;42208;6.376;-10.782;2023-11-21T00:50:55;27.20;99.90
56298;DHT22;42208;6.376;-10.782;2023-11-21T00:53:24;27.20;99.90
56298;DHT22;42208;6.376;-10.782;2023-11-21T00:55:53;27.10;99.90
56298;DHT22;42208;6.376;-10.782;2023-11-21T00:58:22;27.10;99.90
56298;DHT22;42208;6.376;-10.782;2023-11-21T01:00:50;27.10;99.90
56298;DHT22;42208;6.376;-10.782;2023-11-21T01:03:19;27.00;99.90
56298;DHT22;42208;6.376;-10.782;2023-11-21T01:05:47;27.00;99.90
56298;DHT22;42208;6.376;-10.782;2023-11-21T01:08:16;27.00;99.90
56298;DHT22;42208;6.376;-10.782;2023-11-21T01:10:44;26.90;99.90
56298;DHT22;42208;6.376;-10.782;2023-11-21T01:13:14;26.90;99.90
56298;DHT22;42208;6.376;-10.782;2023-11-21T01:15:43;26.90;99.90
56298;DHT22;42208;6.376;-10.782;2023-11-21T01:18:11;26.90;99.90
56298;DHT22;42208;6.376;-10.782;2023-11-21T01:20:40;26.90;99.90
56298;DHT22;42208;6.376;-10.782;2023-11-21T01:23:09;26.90;99.90
56298;DHT22;42208;6.376;-10.782;2023-11-21T01:25:37;26.80;99.90
56298;DHT22;42208;6.376;-10.782;2023-11-21T01:28:06;26.90;99.90
56298;DHT22;42208;6.376;-10.782;2023-11-21T01:30:34;26.90;99.90
56298;DHT22;42208;6.376;-10.782;2023-11-21T01:33:03;26.90;99.90
56298;DHT22;42208;6.376;-10.782;2023-11-21T01:35:32;26.90;99.90
56298;DHT22;42208;6.376;-10.782;2023-11-21T01:38:00;26.90;99.90
56298;DHT22;42208;6.376;-10.782;2023-11-21T01:40:29;26.90;99.90
56298;DHT22;42208;6.376;-10.782;2023-11-21T01:42:57;26.80;99.90
56298;DHT22;42208;6.376;-10.782;2023-11-21T01:45:26;26.80;99.90
56298;DHT22;42208;6.376;-10.782;2023-11-21T01:47:54;26.80;99.90
56298;DHT22;42208;6.376;-10.782;2023-11-21T01:50:24;26.80;99.90
56298;DHT22;42208;6.376;-10.782;2023-11-21T01:52:53;26.80;99.90
56298;DHT22;42208;6.376;-10.782;2023-11-21T01:55:23;26.80;99.90
56298;DHT22;42208;6.376;-10.782;2023-11-21T01:57:56;26.80;99.90
56298;DHT22;42208;6.376;-10.782;2023-11-21T02:00:26;26.70;99.90
56298;DHT22;42208;6.376;-10.782;2023-11-21T02:02:55;26.70;99.90
56298;DHT22;42208;6.376;-10.782;2023-11-21T02:05:24;26.70;99.90
56298;DHT22;42208;6.376;-10.782;2023-11-21T02:07:52;26.70;99.90
56298;DHT22;42208;6.376;-10.782;2023-11-21T02:10:21;26.70;99.90
56298;DHT22;42208;6.376;-10.782;2023-11-21T02:12:50;26.70;99.90
56298;DHT22;42208;6.376;-10.782;2023-11-21T02:15:19;26.70;99.90
56298;DHT22;42208;6.376;-10.782;2023-11-21T02:17:48;26.70;99.90
56298;DHT22;42208;6.376;-10.782;2023-11-21T02:20:18;26.60;99.90
56298;DHT22;42208;6.376;-10.782;2023-11-21T02:22:51;26.60;99.90
56298;DHT22;42208;6.376;-10.782;2023-11-21T02:25:19;26.70;99.90
56298;DHT22;42208;6.376;-10.782;2023-11-21T02:27:48;26.70;99.90
56298;DHT22;42208;6.376;-10.782;2023-11-21T02:30:17;26.70;99.90
56298;DHT22;42208;6.376;-10.782;2023-11-21T02:32:46;26.70;99.90
56298;DHT22;42208;6.376;-10.782;2023-11-21T02:35:16;26.70;99.90
56298;DHT22;42208;6.376;-10.782;2023-11-21T02:37:44;26.70;99.90
56298;DHT22;42208;6.376;-10.782;2023-11-21T02:40:13;26.70;99.90
56298;DHT22;42208;6.376;-10.782;2023-11-21T02:42:42;26.70;99.90
56298;DHT22;42208;6.376;-10.782;2023-11-21T02:45:10;26.70;99.90
56298;DHT22;42208;6.376;-10.782;2023-11-21T02:47:39;26.70;99.90
56298;DHT22;42208;6.376;-10.782;2023-11-21T02:50:08;26.60;99.90
56298;DHT22;42208;6.376;-10.782;2023-11-21T02:52:37;26.60;99.90
56298;DHT22;42208;6.376;-10.782;2023-11-21T02:55:06;26.60;99.90
56298;DHT22;42208;6.376;-10.782;2023-11-21T02:57:35;26.60;99.90
56298;DHT22;42208;6.376;-10.782;2023-11-21T03:00:04;26.60;99.90
56298;DHT22;42208;6.376;-10.782;2023-11-21T03:02:32;26.60;99.90
56298;DHT22;42208;6.376;-10.782;2023-11-21T03:05:01;26.60;99.90
56298;DHT22;42208;6.376;-10.782;2023-11-21T03:07:29;26.60;99.90
56298;DHT22;42208;6.376;-10.782;2023-11-21T03:09:58;26.60;99.90
56298;DHT22;42208;6.376;-10.782;2023-11-21T03:12:26;26.60;99.90
56298;DHT22;42208;6.376;-10.782;2023-11-21T03:14:55;26.60;99.90
56298;DHT22;42208;6.376;-10.782;2023-11-21T03:17:23;26.50;99.90
56298;DHT22;42208;6.376;-10.782;2023-11-21T03:19:52;26.50;99.90
56298;DHT22;42208;6.376;-10.782;2023-11-21T03:22:20;26.60;99.90
56298;DHT22;42208;6.376;-10.782;2023-11-21T03:24:49;26.60;99.90
56298;DHT22;42208;6.376;-10.782;2023-11-21T03:27:17;26.60;99.90
56298;DHT22;42208;6.376;-10.782;2023-11-21T03:29:46;26.50;99.90
56298;DHT22;42208;6.376;-10.782;2023-11-21T03:32:14;26.50;99.90
56298;DHT22;42208;6.376;-10.782;2023-11-21T03:34:56;26.50;99.90
56298;DHT22;42208;6.376;-10.782;2023-11-21T03:37:26;26.50;99.90
56298;DHT22;42208;6.376;-10.782;2023-11-21T03:39:56;26.50;99.90
56298;DHT22;42208;6.376;-10.782;2023-11-21T03:42:25;26.50;99.90
56298;DHT22;42208;6.376;-10.782;2023-11-21T03:44:54;26.50;99.90
56298;DHT22;42208;6.376;-10.782;2023-11-21T03:47:22;26.50;99.90
56298;DHT22;42208;6.376;-10.782;2023-11-21T03:49:51;26.50;99.90
56298;DHT22;42208;6.376;-10.782;2023-11-21T03:52:19;26.50;99.90
56298;DHT22;42208;6.376;-10.782;2023-11-21T03:54:48;26.50;99.90
56298;DHT22;42208;6.376;-10.782;2023-11-21T03:57:16;26.40;99.90
56298;DHT22;42208;6.376;-10.782;2023-11-21T03:59:45;26.40;99.90
56298;DHT22;42208;6.376;-10.782;2023-11-21T04:02:13;26.30;99.90
56298;DHT22;42208;6.376;-10.782;2023-11-21T04:04:41;26.40;99.90
56298;DHT22;42208;6.376;-10.782;2023-11-21T04:07:10;26.40;99.90
56298;DHT22;42208;6.376;-10.782;2023-11-21T04:09:39;26.30;99.90
56298;DHT22;42208;6.376;-10.782;2023-11-21T04:12:08;26.40;99.90
56298;DHT22;42208;6.376;-10.782;2023-11-21T04:14:36;26.40;99.90
56298;DHT22;42208;6.376;-10.782;2023-11-21T04:17:05;26.30;99.90
56298;DHT22;42208;6.376;-10.782;2023-11-21T04:19:34;26.40;99.90
56298;DHT22;42208;6.376;-10.782;2023-11-21T04:22:02;26.40;99.90
56298;DHT22;42208;6.376;-10.782;2023-11-21T04:24:31;26.40;99.90
56298;DHT22;42208;6.376;-10.782;2023-11-21T04:26:59;26.40;99.90
56298;DHT22;42208;6.376;-10.782;2023-11-21T04:29:28;26.40;99.90
56298;DHT22;42208;6.376;-10.782;2023-11-21T04:31:57;26.50;99.90
56298;DHT22;42208;6.376;-10.782;2023-11-21T04:34:25;26.50;99.90
56298;DHT22;42208;6.376;-10.782;2023-11-21T04:36:54;26.50;99.90
56298;DHT22;42208;6.376;-10.782;2023-11-21T04:39:23;26.50;99.90
56298;DHT22;42208;6.376;-10.782;2023-11-21T04:41:52;26.50;99.90
56298;DHT22;42208;6.376;-10.782;2023-11-21T04:44:20;26.50;99.90
56298;DHT22;42208;6.376;-10.782;2023-11-21T04:46:48;26.50;99.90
56298;DHT22;42208;6.376;-10.782;2023-11-21T04:49:18;26.50;99.90
56298;DHT22;42208;6.376;-10.782;2023-11-21T04:51:46;26.50;99.90
56298;DHT22;42208;6.376;-10.782;2023-11-21T04:54:14;26.40;99.90
56298;DHT22;42208;6.376;-10.782;2023-11-21T04:56:43;26.30;99.90
56298;DHT22;42208;6.376;-10.782;2023-11-21T04:59:11;26.30;99.90
56298;DHT22;42208;6.376;-10.782;2023-11-21T05:01:40;26.30;99.90
56298;DHT22;42208;6.376;-10.782;2023-11-21T05:04:08;26.30;99.90
56298;DHT22;42208;6.376;-10.782;2023-11-21T05:06:37;26.30;99.90
56298;DHT22;42208;6.376;-10.782;2023-11-21T05:09:05;26.40;99.90
56298;DHT22;42208;6.376;-10.782;2023-11-21T05:11:34;26.40;99.90
56298;DHT22;42208;6.376;-10.782;2023-11-21T05:14:02;26.40;99.90
56298;DHT22;42208;6.376;-10.782;2023-11-21T05:16:31;26.40;99.90
56298;DHT22;42208;6.376;-10.782;2023-11-21T05:19:00;26.40;99.90
56298;DHT22;42208;6.376;-10.782;2023-11-21T05:21:28;26.40;99.90
56298;DHT22;42208;6.376;-10.782;2023-11-21T05:23:57;26.40;99.90
56298;DHT22;42208;6.376;-10.782;2023-11-21T05:26:25;26.40;99.90
56298;DHT22;42208;6.376;-10.782;2023-11-21T05:28:54;26.30;99.90
56298;DHT22;42208;6.376;-10.782;2023-11-21T05:31:22;26.30;99.90
56298;DHT22;42208;6.376;-10.782;2023-11-21T05:33:51;26.30;99.90
56298;DHT22;42208;6.376;-10.782;2023-11-21T05:36:19;26.30;99.90
56298;DHT22;42208;6.376;-10.782;2023-11-21T05:38:48;26.40;99.90
56298;DHT22;42208;6.376;-10.782;2023-11-21T05:41:16;26.30;99.90
56298;DHT22;42208;6.376;-10.782;2023-11-21T05:43:45;26.30;99.90
56298;DHT22;42208;6.376;-10.782;2023-11-21T05:46:13;26.30;99.90
56298;DHT22;42208;6.376;-10.782;2023-11-21T05:48:42;26.30;99.90
56298;DHT22;42208;6.376;-10.782;2023-11-21T05:51:10;26.30;99.90
56298;DHT22;42208;6.376;-10.782;2023-11-21T05:53:39;26.30;99.90
56298;DHT22;42208;6.376;-10.782;2023-11-21T05:56:08;26.30;99.90
56298;DHT22;42208;6.376;-10.782;2023-11-21T05:58:36;26.30;99.90
56298;DHT22;42208;6.376;-10.782;2023-11-21T06:01:06;26.30;99.90
56298;DHT22;42208;6.376;-10.782;2023-11-21T06:03:35;26.40;99.90
56298;DHT22;42208;6.376;-10.782;2023-11-21T06:06:04;26.30;99.90
56298;DHT22;42208;6.376;-10.782;2023-11-21T06:08:32;26.40;99.90
56298;DHT22;42208;6.376;-10.782;2023-11-21T06:11:01;26.40;99.90
56298;DHT22;42208;6.376;-10.782;2023-11-21T06:13:29;26.40;99.90
56298;DHT22;42208;6.376;-10.782;2023-11-21T06:15:58;26.40;99.90
56298;DHT22;42208;6.376;-10.782;2023-11-21T06:18:27;26.30;99.90
56298;DHT22;42208;6.376;-10.782;2023-11-21T06:20:56;26.30;99.90
56298;DHT22;42208;6.376;-10.782;2023-11-21T06:23:24;26.30;99.90
56298;DHT22;42208;6.376;-10.782;2023-11-21T06:25:53;26.30;99.90
56298;DHT22;42208;6.376;-10.782;2023-11-21T06:28:21;26.30;99.90
56298;DHT22;42208;6.376;-10.782;2023-11-21T06:30:50;26.30;99.90
56298;DHT22;42208;6.376;-10.782;2023-11-21T06:33:19;26.30;99.90
56298;DHT22;42208;6.376;-10.782;2023-11-21T06:35:48;26.30;99.90
56298;DHT22;42208;6.376;-10.782;2023-11-21T06:38:17;26.30;99.90
56298;DHT22;42208;6.376;-10.782;2023-11-21T06:40:45;26.30;99.90
56298;DHT22;42208;6.376;-10.782;2023-11-21T06:43:13;26.30;99.90
56298;DHT22;42208;6.376;-10.782;2023-11-21T06:45:42;26.30;99.90
56298;DHT22;42208;6.376;-10.782;2023-11-21T06:48:10;26.30;99.90
56298;DHT22;42208;6.376;-10.782;2023-11-21T06:50:39;26.30;99.90
56298;DHT22;42208;6.376;-10.782;2023-11-21T06:53:08;26.30;99.90
56298;DHT22;42208;6.376;-10.782;2023-11-21T06:55:39;26.30;99.90
56298;DHT22;42208;6.376;-10.782;2023-11-21T06:58:08;26.30;99.90
56298;DHT22;42208;6.376;-10.782;2023-11-21T07:00:36;26.30;99.90
56298;DHT22;42208;6.376;-10.782;2023-11-21T07:03:05;26.30;99.90
56298;DHT22;42208;6.376;-10.782;2023-11-21T07:05:34;26.30;99.90
56298;DHT22;42208;6.376;-10.782;2023-11-21T07:08:03;26.30;99.90
56298;DHT22;42208;6.376;-10.782;2023-11-21T07:10:32;26.30;99.90
56298;DHT22;42208;6.376;-10.782;2023-11-21T07:13:00;26.30;99.90
56298;DHT22;42208;6.376;-10.782;2023-11-21T07:15:29;26.30;99.90
56298;DHT22;42208;6.376;-10.782;2023-11-21T07:17:57;26.30;99.90
56298;DHT22;42208;6.376;-10.782;2023-11-21T07:20:26;26.40;99.90
56298;DHT22;42208;6.376;-10.782;2023-11-21T07:22:54;26.40;99.90
56298;DHT22;42208;6.376;-10.782;2023-11-21T07:25:23;26.40;99.90
56298;DHT22;42208;6.376;-10.782;2023-11-21T07:27:51;26.50;99.90
56298;DHT22;42208;6.376;-10.782;2023-11-21T07:30:19;26.50;99.90
56298;DHT22;42208;6.376;-10.782;2023-11-21T07:32:48;26.50;99.90
56298;DHT22;42208;6.376;-10.782;2023-11-21T07:35:17;26.50;99.90
56298;DHT22;42208;6.376;-10.782;2023-11-21T07:37:45;26.50;99.90
56298;DHT22;42208;6.376;-10.782;2023-11-21T07:40:14;26.50;99.90
56298;DHT22;42208;6.376;-10.782;2023-11-21T07:42:43;26.60;99.90
56298;DHT22;42208;6.376;-10.782;2023-11-21T07:45:11;26.60;99.90
56298;DHT22;42208;6.376;-10.782;2023-11-21T07:47:40;26.70;99.90
56298;DHT22;42208;6.376;-10.782;2023-11-21T07:50:09;26.70;99.90
56298;DHT22;42208;6.376;-10.782;2023-11-21T07:52:37;26.70;99.90
56298;DHT22;42208;6.376;-10.782;2023-11-21T07:55:06;26.80;99.90
56298;DHT22;42208;6.376;-10.782;2023-11-21T07:57:34;26.80;99.90
56298;DHT22;42208;6.376;-10.782;2023-11-21T08:00:05;26.80;99.90
56298;DHT22;42208;6.376;-10.782;2023-11-21T08:02:41;26.90;99.90
56298;DHT22;42208;6.376;-10.782;2023-11-21T08:05:10;26.80;99.90
56298;DHT22;42208;6.376;-10.782;2023-11-21T08:07:51;26.90;99.90
56298;DHT22;42208;6.376;-10.782;2023-11-21T08:10:20;26.90;99.90
56298;DHT22;42208;6.376;-10.782;2023-11-21T08:12:48;26.90;99.90
56298;DHT22;42208;6.376;-10.782;2023-11-21T08:15:17;26.90;99.90
56298;DHT22;42208;6.376;-10.782;2023-11-21T08:17:46;26.90;99.90
56298;DHT22;42208;6.376;-10.782;2023-11-21T08:20:15;26.90;99.90
56298;DHT22;42208;6.376;-10.782;2023-11-21T08:22:44;27.00;99.90
56298;DHT22;42208;6.376;-10.782;2023-11-21T08:25:13;27.00;99.90
56298;DHT22;42208;6.376;-10.782;2023-11-21T08:27:41;27.00;99.90
56298;DHT22;42208;6.376;-10.782;2023-11-21T08:30:10;27.00;99.90
56298;DHT22;42208;6.376;-10.782;2023-11-21T08:32:39;27.00;99.90
56298;DHT22;42208;6.376;-10.782;2023-11-21T08:35:08;27.10;99.90
56298;DHT22;42208;6.376;-10.782;2023-11-21T08:37:36;27.10;99.90
56298;DHT22;42208;6.376;-10.782;2023-11-21T08:40:06;27.20;99.90
56298;DHT22;42208;6.376;-10.782;2023-11-21T08:42:35;27.20;99.90
56298;DHT22;42208;6.376;-10.782;2023-11-21T08:45:05;27.20;99.90
56298;DHT22;42208;6.376;-10.782;2023-11-21T08:47:33;27.20;99.90
56298;DHT22;42208;6.376;-10.782;2023-11-21T08:50:03;27.30;99.90
56298;DHT22;42208;6.376;-10.782;2023-11-21T08:52:31;27.40;99.90
56298;DHT22;42208;6.376;-10.782;2023-11-21T08:57:05;27.40;99.90
56298;DHT22;42208;6.376;-10.782;2023-11-21T08:59:33;27.40;99.90
56298;DHT22;42208;6.376;-10.782;2023-11-21T09:02:01;27.50;99.90
56298;DHT22;42208;6.376;-10.782;2023-11-21T09:04:31;27.50;99.90
56298;DHT22;42208;6.376;-10.782;2023-11-21T09:07:03;27.60;99.90
56298;DHT22;42208;6.376;-10.782;2023-11-21T09:09:33;27.60;99.90
56298;DHT22;42208;6.376;-10.782;2023-11-21T09:12:01;27.60;99.90
56298;DHT22;42208;6.376;-10.782;2023-11-21T09:14:30;27.70;99.90
56298;DHT22;42208;6.376;-10.782;2023-11-21T09:16:58;27.80;99.90
56298;DHT22;42208;6.376;-10.782;2023-11-21T09:19:27;27.80;99.90
56298;DHT22;42208;6.376;-10.782;2023-11-21T09:21:55;27.80;99.90
56298;DHT22;42208;6.376;-10.782;2023-11-21T09:24:24;27.80;99.90
56298;DHT22;42208;6.376;-10.782;2023-11-21T09:26:52;27.80;99.90
56298;DHT22;42208;6.376;-10.782;2023-11-21T09:29:20;27.80;99.90
56298;DHT22;42208;6.376;-10.782;2023-11-21T09:31:49;27.90;99.90
56298;DHT22;42208;6.376;-10.782;2023-11-21T09:34:17;28.00;99.90
56298;DHT22;42208;6.376;-10.782;2023-11-21T09:36:46;28.00;99.90
56298;DHT22;42208;6.376;-10.782;2023-11-21T09:39:15;28.00;99.90
56298;DHT22;42208;6.376;-10.782;2023-11-21T09:41:56;28.10;99.90
56298;DHT22;42208;6.376;-10.782;2023-11-21T09:44:35;28.10;99.90
56298;DHT22;42208;6.376;-10.782;2023-11-21T09:47:04;28.00;99.90
56298;DHT22;42208;6.376;-10.782;2023-11-21T09:49:35;28.00;99.90
56298;DHT22;42208;6.376;-10.782;2023-11-21T09:52:04;28.10;99.90
56298;DHT22;42208;6.376;-10.782;2023-11-21T09:54:36;28.10;99.90
56298;DHT22;42208;6.376;-10.782;2023-11-21T09:57:05;28.20;99.90
56298;DHT22;42208;6.376;-10.782;2023-11-21T09:59:34;28.20;99.90
56298;DHT22;42208;6.376;-10.782;2023-11-21T10:02:07;28.30;99.90
56298;DHT22;42208;6.376;-10.782;2023-11-21T10:04:35;28.30;99.90
56298;DHT22;42208;6.376;-10.782;2023-11-21T10:07:05;28.30;99.90
56298;DHT22;42208;6.376;-10.782;2023-11-21T10:09:34;28.40;99.90
56298;DHT22;42208;6.376;-10.782;2023-11-21T10:12:03;28.40;99.90
56298;DHT22;42208;6.376;-10.782;2023-11-21T10:14:34;28.40;99.90
56298;DHT22;42208;6.376;-10.782;2023-11-21T10:17:04;28.50;99.90
56298;DHT22;42208;6.376;-10.782;2023-11-21T10:19:33;28.60;99.90
56298;DHT22;42208;6.376;-10.782;2023-11-21T10:22:03;28.60;99.90
56298;DHT22;42208;6.376;-10.782;2023-11-21T10:24:31;28.60;99.90
56298;DHT22;42208;6.376;-10.782;2023-11-21T10:27:15;28.60;99.90
56298;DHT22;42208;6.376;-10.782;2023-11-21T10:29:43;28.60;99.90
56298;DHT22;42208;6.376;-10.782;2023-11-21T10:32:12;28.60;99.90
56298;DHT22;42208;6.376;-10.782;2023-11-21T10:34:41;28.60;99.90
56298;DHT22;42208;6.376;-10.782;2023-11-21T10:37:12;28.70;99.90
56298;DHT22;42208;6.376;-10.782;2023-11-21T10:39:41;28.80;99.90
56298;DHT22;42208;6.376;-10.782;2023-11-21T10:42:10;28.80;99.90
56298;DHT22;42208;6.376;-10.782;2023-11-21T10:44:38;28.80;99.90
56298;DHT22;42208;6.376;-10.782;2023-11-21T10:47:09;28.80;99.90
56298;DHT22;42208;6.376;-10.782;2023-11-21T10:49:39;28.70;99.90
56298;DHT22;42208;6.376;-10.782;2023-11-21T10:52:07;28.90;99.90
56298;DHT22;42208;6.376;-10.782;2023-11-21T10:54:37;28.80;99.90
56298;DHT22;42208;6.376;-10.782;2023-11-21T10:57:11;28.80;99.90
56298;DHT22;42208;6.376;-10.782;2023-11-21T10:59:41;28.80;99.90
56298;DHT22;42208;6.376;-10.782;2023-11-21T11:02:32;28.80;99.90
56298;DHT22;42208;6.376;-10.782;2023-11-21T11:05:02;29.00;99.90
56298;DHT22;42208;6.376;-10.782;2023-11-21T11:07:32;29.10;99.90
56298;DHT22;42208;6.376;-10.782;2023-11-21T11:10:02;29.00;99.90
56298;DHT22;42208;6.376;-10.782;2023-11-21T11:12:31;29.10;99.90
56298;DHT22;42208;6.376;-10.782;2023-11-21T11:15:01;29.20;99.90
56298;DHT22;42208;6.376;-10.782;2023-11-21T11:17:30;29.30;99.90
56298;DHT22;42208;6.376;-10.782;2023-11-21T11:19:58;29.20;99.90
56298;DHT22;42208;6.376;-10.782;2023-11-21T11:28:20;29.30;99.90
56298;DHT22;42208;6.376;-10.782;2023-11-21T11:33:42;29.40;99.90
56298;DHT22;42208;6.376;-10.782;2023-11-21T11:36:34;29.40;99.90
56298;DHT22;42208;6.376;-10.782;2023-11-21T11:39:26;29.40;99.90
56298;DHT22;42208;6.376;-10.782;2023-11-21T11:41:56;29.50;99.90
56298;DHT22;42208;6.376;-10.782;2023-11-21T11:49:57;29.40;99.90
56298;DHT22;42208;6.376;-10.782;2023-11-21T11:55:09;29.40;99.90
56298;DHT22;42208;6.376;-10.782;2023-11-21T11:57:40;29.40;99.90
56298;DHT22;42208;6.376;-10.782;2023-11-21T12:00:21;29.40;99.90
56298;DHT22;42208;6.376;-10.782;2023-11-21T12:02:55;29.50;99.90
56298;DHT22;42208;6.376;-10.782;2023-11-21T12:05:24;29.60;99.90
56298;DHT22;42208;6.376;-10.782;2023-11-21T12:07:55;29.70;99.90
56298;DHT22;42208;6.376;-10.782;2023-11-21T12:10:26;29.80;99.90
56298;DHT22;42208;6.376;-10.782;2023-11-21T12:12:57;29.90;99.90
56298;DHT22;42208;6.376;-10.782;2023-11-21T12:15:26;29.90;99.90
56298;DHT22;42208;6.376;-10.782;2023-11-21T12:17:55;30.00;99.90
56298;DHT22;42208;6.376;-10.782;2023-11-21T12:20:24;29.80;99.90
56298;DHT22;42208;6.376;-10.782;2023-11-21T12:22:54;29.70;99.90
56298;DHT22;42208;6.376;-10.782;2023-11-21T12:25:25;29.80;99.90
56298;DHT22;42208;6.376;-10.782;2023-11-21T12:27:54;29.90;99.90
56298;DHT22;42208;6.376;-10.782;2023-11-21T12:30:24;29.80;99.90
56298;DHT22;42208;6.376;-10.782;2023-11-21T12:32:54;29.80;99.90
56298;DHT22;42208;6.376;-10.782;2023-11-21T12:35:33;29.90;99.90
56298;DHT22;42208;6.376;-10.782;2023-11-21T12:38:04;30.00;99.90
56298;DHT22;42208;6.376;-10.782;2023-11-21T12:40:33;30.10;99.90
56298;DHT22;42208;6.376;-10.782;2023-11-21T12:43:01;30.10;99.90
56298;DHT22;42208;6.376;-10.782;2023-11-21T12:45:30;30.10;99.90
56298;DHT22;42208;6.376;-10.782;2023-11-21T12:48:03;30.20;99.90
56298;DHT22;42208;6.376;-10.782;2023-11-21T12:50:34;30.00;99.90
56298;DHT22;42208;6.376;-10.782;2023-11-21T12:53:05;30.00;99.90
56298;DHT22;42208;6.376;-10.782;2023-11-21T12:55:35;30.20;99.90
56298;DHT22;42208;6.376;-10.782;2023-11-21T12:58:08;30.30;99.90
56298;DHT22;42208;6.376;-10.782;2023-11-21T13:00:57;30.40;99.90
56298;DHT22;42208;6.376;-10.782;2023-11-21T13:03:26;30.40;99.90
56298;DHT22;42208;6.376;-10.782;2023-11-21T13:05:55;30.30;99.90
56298;DHT22;42208;6.376;-10.782;2023-11-21T13:08:25;30.40;99.90
56298;DHT22;42208;6.376;-10.782;2023-11-21T13:10:56;30.50;99.90
56298;DHT22;42208;6.376;-10.782;2023-11-21T13:13:28;30.50;99.90
56298;DHT22;42208;6.376;-10.782;2023-11-21T13:16:02;30.40;99.90
56298;DHT22;42208;6.376;-10.782;2023-11-21T13:18:31;30.50;99.90
56298;DHT22;42208;6.376;-10.782;2023-11-21T13:21:02;30.50;99.90
56298;DHT22;42208;6.376;-10.782;2023-11-21T13:23:35;30.20;99.90
56298;DHT22;42208;6.376;-10.782;2023-11-21T13:26:04;30.20;99.90
56298;DHT22;42208;6.376;-10.782;2023-11-21T13:28:35;30.20;99.90
56298;DHT22;42208;6.376;-10.782;2023-11-21T13:31:05;30.10;99.90
56298;DHT22;42208;6.376;-10.782;2023-11-21T13:33:33;30.10;99.90
56298;DHT22;42208;6.376;-10.782;2023-11-21T13:36:02;30.10;99.90
56298;DHT22;42208;6.376;-10.782;2023-11-21T13:38:30;30.30;99.90
56298;DHT22;42208;6.376;-10.782;2023-11-21T13:40:59;30.40;99.90
56298;DHT22;42208;6.376;-10.782;2023-11-21T13:43:28;30.40;99.90
56298;DHT22;42208;6.376;-10.782;2023-11-21T13:45:56;30.40;99.90
56298;DHT22;42208;6.376;-10.782;2023-11-21T13:48:26;30.20;99.90
56298;DHT22;42208;6.376;-10.782;2023-11-21T13:50:55;30.40;99.90
56298;DHT22;42208;6.376;-10.782;2023-11-21T13:53:23;30.50;99.90
56298;DHT22;42208;6.376;-10.782;2023-11-21T13:55:53;30.50;99.90
56298;DHT22;42208;6.376;-10.782;2023-11-21T13:58:22;30.60;99.90
56298;DHT22;42208;6.376;-10.782;2023-11-21T14:00:50;30.60;99.90
56298;DHT22;42208;6.376;-10.782;2023-11-21T14:03:18;30.70;99.90
56298;DHT22;42208;6.376;-10.782;2023-11-21T14:05:50;30.70;99.90
56298;DHT22;42208;6.376;-10.782;2023-11-21T14:08:21;30.70;99.90
56298;DHT22;42208;6.376;-10.782;2023-11-21T14:11:56;30.80;99.90
56298;DHT22;42208;6.376;-10.782;2023-11-21T14:14:26;30.50;99.90
56298;DHT22;42208;6.376;-10.782;2023-11-21T14:16:55;30.50;99.90
56298;DHT22;42208;6.376;-10.782;2023-11-21T14:19:24;30.70;99.90
56298;DHT22;42208;6.376;-10.782;2023-11-21T16:54:17;31.30;99.90
56298;DHT22;42208;6.376;-10.782;2023-11-21T16:56:47;31.30;99.90
56298;DHT22;42208;6.376;-10.782;2023-11-21T16:59:16;31.40;99.90
56298;DHT22;42208;6.376;-10.782;2023-11-21T17:01:44;31.30;99.90
56298;DHT22;42208;6.376;-10.782;2023-11-21T17:04:13;31.30;99.90
56298;DHT22;42208;6.376;-10.782;2023-11-21T17:06:42;30.90;99.90
56298;DHT22;42208;6.376;-10.782;2023-11-21T17:09:11;30.80;99.90
56298;DHT22;42208;6.376;-10.782;2023-11-21T17:11:40;30.90;99.90
56298;DHT22;42208;6.376;-10.782;2023-11-21T17:14:10;30.80;99.90
56298;DHT22;42208;6.376;-10.782;2023-11-21T17:16:38;30.80;99.90
56298;DHT22;42208;6.376;-10.782;2023-11-21T17:19:07;30.60;99.90
56298;DHT22;42208;6.376;-10.782;2023-11-21T17:21:36;30.50;99.90
56298;DHT22;42208;6.376;-10.782;2023-11-21T17:24:05;30.50;99.90
56298;DHT22;42208;6.376;-10.782;2023-11-21T17:26:33;30.40;99.90
56298;DHT22;42208;6.376;-10.782;2023-11-21T17:29:02;30.30;99.90
56298;DHT22;42208;6.376;-10.782;2023-11-21T17:31:30;30.30;99.90
56298;DHT22;42208;6.376;-10.782;2023-11-21T17:33:59;30.20;99.90
56298;DHT22;42208;6.376;-10.782;2023-11-21T17:36:28;30.10;99.90
56298;DHT22;42208;6.376;-10.782;2023-11-21T17:38:56;30.10;99.90
56298;DHT22;42208;6.376;-10.782;2023-11-21T17:41:24;30.10;99.90
56298;DHT22;42208;6.376;-10.782;2023-11-21T17:43:53;30.10;99.90
56298;DHT22;42208;6.376;-10.782;2023-11-21T17:46:22;30.00;99.90
56298;DHT22;42208;6.376;-10.782;2023-11-21T17:48:51;30.00;99.90
56298;DHT22;42208;6.376;-10.782;2023-11-21T17:51:20;30.00;99.90
56298;DHT22;42208;6.376;-10.782;2023-11-21T17:53:49;29.90;99.90
56298;DHT22;42208;6.376;-10.782;2023-11-21T17:56:18;29.90;99.90
56298;DHT22;42208;6.376;-10.782;2023-11-21T17:58:47;29.90;99.90
56298;DHT22;42208;6.376;-10.782;2023-11-21T18:01:15;29.80;99.90
56298;DHT22;42208;6.376;-10.782;2023-11-21T18:03:44;29.80;99.90
56298;DHT22;42208;6.376;-10.782;2023-11-21T18:06:13;29.70;99.90
56298;DHT22;42208;6.376;-10.782;2023-11-21T18:08:41;29.70;99.90
56298;DHT22;42208;6.376;-10.782;2023-11-21T18:11:10;29.70;99.90
56298;DHT22;42208;6.376;-10.782;2023-11-21T18:13:39;29.60;99.90
56298;DHT22;42208;6.376;-10.782;2023-11-21T18:16:08;29.60;99.90
56298;DHT22;42208;6.376;-10.782;2023-11-21T18:18:36;29.50;99.90
56298;DHT22;42208;6.376;-10.782;2023-11-21T18:21:04;29.50;99.90